Time;durP1;ratioP1;P1;durP2;ratioP2;P2;SDS_P1;SDS_P2;PMS_P1;PMS_P2;Temp;Humidity;BMP_temperature;BMP_pressure;BME280_temperature;BME280_humidity;BME280_pressure;Samples;Min_cycle;Max_cycle;Signal;HPM_P1;HPM_P2
2023/06/10 00:02:09;;;;;;;7.70;4.85;;;26.00;99.90;;;;;;5035524;28;20063;-57
2023/06/10 00:04:38;;;;;;;7.43;4.35;;;26.10;99.90;;;;;;5034270;28;20033;-57
2023/06/10 00:07:08;;;;;;;8.82;4.40;;;26.00;99.90;;;;;;5035765;28;20026;-58
2023/06/10 00:09:38;;;;;;;6.78;4.45;;;26.00;99.90;;;;;;5034739;28;20025;-57
2023/06/10 00:12:06;;;;;;;7.30;4.93;;;26.00;99.90;;;;;;5034769;28;20029;-58
2023/06/10 00:14:33;;;;;;;6.28;4.10;;;26.10;99.90;;;;;;5034079;28;20057;-57
2023/06/10 00:16:59;;;;;;;5.70;4.32;;;26.10;99.90;;;;;;5034073;28;20022;-57
2023/06/10 00:19:30;;;;;;;7.25;4.38;;;26.00;99.90;;;;;;5035098;28;20501;-58
2023/06/10 00:21:56;;;;;;;6.78;3.65;;;26.10;99.90;;;;;;5035536;28;20390;-57
2023/06/10 00:24:22;;;;;;;6.03;3.50;;;26.00;99.90;;;;;;5035823;28;20033;-58
2023/06/10 00:26:48;;;;;;;6.45;3.72;;;26.00;99.90;;;;;;5034507;28;20736;-57
2023/06/10 00:29:14;;;;;;;6.55;4.40;;;26.00;99.90;;;;;;5035773;28;20032;-57
2023/06/10 00:31:40;;;;;;;9.27;4.53;;;26.00;99.90;;;;;;5035664;28;20044;-58
2023/06/10 00:34:07;;;;;;;8.10;4.43;;;26.00;99.90;;;;;;5035590;28;20019;-57
2023/06/10 00:36:33;;;;;;;5.93;3.92;;;26.00;99.90;;;;;;5035679;28;20026;-58
2023/06/10 00:38:59;;;;;;;5.35;3.60;;;26.00;99.90;;;;;;5035894;28;20041;-58
2023/06/10 00:41:28;;;;;;;5.60;4.10;;;26.00;99.90;;;;;;5035807;28;20029;-57
2023/06/10 00:43:54;;;;;;;7.43;4.45;;;26.00;99.90;;;;;;5034356;28;20032;-58
2023/06/10 00:46:21;;;;;;;6.35;4.43;;;26.00;99.90;;;;;;5035502;28;20025;-58
2023/06/10 00:48:47;;;;;;;5.70;3.45;;;26.00;99.90;;;;;;5035583;28;20104;-58
2023/06/10 00:51:13;;;;;;;4.68;3.58;;;26.00;99.90;;;;;;5035491;28;20625;-59
2023/06/10 00:53:41;;;;;;;8.38;4.10;;;26.00;99.90;;;;;;5035477;28;20387;-58
2023/06/10 00:56:07;;;;;;;4.45;3.47;;;26.00;99.90;;;;;;5035155;28;20030;-58
2023/06/10 00:58:33;;;;;;;5.05;3.90;;;26.00;99.90;;;;;;5035390;28;20061;-57
2023/06/10 01:00:59;;;;;;;5.10;3.35;;;26.00;99.90;;;;;;5047615;22;20131;-50
2023/06/10 01:03:25;;;;;;;6.80;3.80;;;26.00;99.90;;;;;;5035109;28;20458;-50
2023/06/10 01:06:17;;;;;;;5.82;3.53;;;26.00;99.90;;;;;;5035237;28;20048;-50
2023/06/10 01:09:02;;;;;;;7.63;4.18;;;26.00;99.90;;;;;;5035175;28;20025;-50
2023/06/10 01:11:34;;;;;;;5.32;3.15;;;26.00;99.90;;;;;;5035199;28;20025;-50
2023/06/10 01:14:01;;;;;;;5.43;3.25;;;26.00;99.90;;;;;;5035099;28;20071;-50
2023/06/10 01:16:28;;;;;;;4.82;3.42;;;26.00;99.90;;;;;;5034884;28;20025;-50
2023/06/10 01:18:54;;;;;;;7.20;4.28;;;26.00;99.90;;;;;;5034802;28;20053;-51
2023/06/10 01:21:24;;;;;;;5.90;3.17;;;26.00;99.90;;;;;;5033505;28;20553;-50
2023/06/10 01:23:51;;;;;;;7.43;3.90;;;25.90;99.90;;;;;;5034544;28;20034;-49
2023/06/10 01:26:20;;;;;;;6.07;3.47;;;26.00;99.90;;;;;;5034860;28;20018;-50
2023/06/10 01:28:53;;;;;;;4.85;3.28;;;26.00;99.90;;;;;;5034543;28;20033;-50
2023/06/10 01:31:40;;;;;;;5.22;3.20;;;25.90;99.90;;;;;;5033833;28;20025;-50
2023/06/10 01:34:12;;;;;;;5.50;3.50;;;25.90;99.90;;;;;;5034516;28;20101;-50
2023/06/10 01:36:40;;;;;;;4.28;3.58;;;25.90;99.90;;;;;;5034797;28;20067;-50
2023/06/10 01:39:07;;;;;;;;;;;25.90;99.90;;;;;;5035063;28;20439;-50
2023/06/10 01:41:34;;;;;;;6.97;3.55;;;25.90;99.90;;;;;;5034469;28;20003;-51
2023/06/10 01:43:59;;;;;;;5.97;3.35;;;25.90;99.90;;;;;;5034814;28;20032;-51
2023/06/10 01:46:25;;;;;;;5.78;3.70;;;25.90;99.90;;;;;;5034457;28;20022;-50
2023/06/10 01:48:51;;;;;;;5.13;3.45;;;25.90;99.90;;;;;;5034387;28;20029;-50
2023/06/10 01:51:17;;;;;;;4.15;3.58;;;25.90;99.90;;;;;;5034203;28;20033;-50
2023/06/10 01:53:43;;;;;;;5.03;3.00;;;25.90;99.90;;;;;;5034393;28;20033;-50
2023/06/10 01:56:09;;;;;;;4.63;3.00;;;25.90;99.90;;;;;;5016445;28;20026;-50
2023/06/10 01:58:35;;;;;;;5.25;2.60;;;25.90;99.90;;;;;;5034241;28;20029;-50
2023/06/10 02:01:01;;;;;;;6.10;3.50;;;25.90;99.90;;;;;;5034376;28;20537;-54
2023/06/10 02:03:26;;;;;;;5.22;3.40;;;25.90;99.90;;;;;;5034002;28;20103;-51
2023/06/10 02:05:52;;;;;;;6.03;3.28;;;25.90;99.90;;;;;;5016518;28;20033;-50
2023/06/10 02:08:18;;;;;;;5.70;2.88;;;25.90;99.90;;;;;;5034095;28;20429;-50
2023/06/10 02:10:44;;;;;;;7.78;3.95;;;25.90;99.90;;;;;;5033772;28;20040;-51
2023/06/10 02:13:10;;;;;;;5.35;3.30;;;25.90;99.90;;;;;;5034043;28;20154;-51
2023/06/10 02:15:35;;;;;;;5.63;3.80;;;25.90;99.90;;;;;;5033871;28;20071;-50
2023/06/10 02:18:02;;;;;;;4.43;3.05;;;25.90;99.90;;;;;;5034029;28;20037;-50
2023/06/10 02:20:28;;;;;;;6.35;3.38;;;25.90;99.90;;;;;;5033769;28;20022;-49
2023/06/10 02:22:53;;;;;;;6.15;3.58;;;25.90;99.90;;;;;;5033786;28;20028;-52
2023/06/10 02:25:19;;;;;;;6.90;3.15;;;25.90;99.90;;;;;;5033758;28;20043;-50
2023/06/10 02:27:45;;;;;;;4.95;3.40;;;25.90;99.90;;;;;;5033531;28;20064;-50
2023/06/10 02:30:12;;;;;;;5.32;2.95;;;25.90;99.90;;;;;;5033612;28;20061;-50
2023/06/10 02:32:38;;;;;;;8.90;3.40;;;25.90;99.90;;;;;;5033541;28;20389;-50
2023/06/10 02:35:05;;;;;;;5.10;3.20;;;25.90;99.90;;;;;;5033423;28;20029;-50
2023/06/10 02:37:30;;;;;;;8.00;3.07;;;25.80;99.90;;;;;;5033569;28;20108;-50
2023/06/10 02:39:56;;;;;;;4.18;3.22;;;25.80;99.90;;;;;;5033557;28;20101;-50
2023/06/10 02:42:22;;;;;;;5.28;3.10;;;25.80;99.90;;;;;;5033498;28;20367;-50
2023/06/10 02:44:48;;;;;;;6.03;3.50;;;25.80;99.90;;;;;;5033355;28;20048;-50
2023/06/10 02:47:14;;;;;;;4.18;2.75;;;25.80;99.90;;;;;;5033770;28;20060;-49
2023/06/10 02:49:40;;;;;;;4.32;3.33;;;25.80;99.90;;;;;;5033655;28;20025;-49
2023/06/10 02:52:06;;;;;;;5.38;3.20;;;25.80;99.90;;;;;;5033412;28;20033;-50
2023/06/10 02:54:32;;;;;;;8.52;3.85;;;25.80;99.90;;;;;;5033274;28;20171;-50
2023/06/10 02:56:58;;;;;;;4.50;3.25;;;25.80;99.90;;;;;;5033366;28;20112;-49
2023/06/10 02:59:24;;;;;;;4.93;3.30;;;25.80;99.90;;;;;;5033122;28;20100;-49
2023/06/10 03:01:50;;;;;;;5.22;3.40;;;25.80;99.90;;;;;;5033384;28;20061;-49
2023/06/10 03:04:15;;;;;;;6.95;3.47;;;25.80;99.90;;;;;;5031956;28;20025;-49
2023/06/10 03:06:42;;;;;;;4.53;3.20;;;25.80;99.90;;;;;;5031832;28;20164;-49
2023/06/10 03:09:07;;;;;;;5.82;4.10;;;25.80;99.90;;;;;;5031850;28;20035;-50
2023/06/10 03:11:33;;;;;;;7.07;3.13;;;25.80;99.90;;;;;;5033061;28;20545;-49
2023/06/10 03:13:59;;;;;;;6.85;3.60;;;25.80;99.90;;;;;;5032082;28;20030;-49
2023/06/10 03:16:25;;;;;;;6.50;3.70;;;25.80;99.90;;;;;;5033176;28;20028;-49
2023/06/10 03:18:51;;;;;;;5.60;3.42;;;25.80;99.90;;;;;;5033341;28;20076;-49
2023/06/10 03:21:17;;;;;;;5.63;3.58;;;25.80;99.90;;;;;;5033093;28;20021;-49
2023/06/10 03:23:43;;;;;;;5.22;3.40;;;25.80;99.90;;;;;;5015735;28;20025;-48
2023/06/10 03:26:09;;;;;;;7.15;2.97;;;25.80;99.90;;;;;;5033155;28;20032;-49
2023/06/10 03:28:35;;;;;;;6.38;2.70;;;25.80;99.90;;;;;;5032873;28;20080;-49
2023/06/10 03:31:01;;;;;;;6.13;3.53;;;25.80;99.90;;;;;;5033102;28;20029;-50
2023/06/10 03:33:27;;;;;;;4.43;3.17;;;25.80;99.90;;;;;;5032893;28;20481;-50
2023/06/10 03:35:53;;;;;;;6.38;2.90;;;25.80;99.90;;;;;;5032993;28;20029;-49
2023/06/10 03:38:19;;;;;;;6.88;3.95;;;25.80;99.90;;;;;;5015364;28;20026;-49
2023/06/10 03:40:45;;;;;;;5.35;3.15;;;25.80;99.90;;;;;;5032904;28;20091;-49
2023/06/10 03:43:10;;;;;;;4.97;2.75;;;25.80;99.90;;;;;;5032997;28;20380;-49
2023/06/10 03:45:36;;;;;;;5.43;2.90;;;25.70;99.90;;;;;;5032811;28;20026;-49
2023/06/10 03:48:03;;;;;;;4.05;2.88;;;25.70;99.90;;;;;;5032795;28;20033;-49
2023/06/10 03:50:29;;;;;;;6.03;2.90;;;25.70;99.90;;;;;;5032916;28;20104;-49
2023/06/10 03:52:55;;;;;;;5.13;2.97;;;25.70;99.90;;;;;;5032993;28;20180;-49
2023/06/10 03:55:21;;;;;;;4.38;3.28;;;25.70;99.90;;;;;;5036650;28;20029;-49
2023/06/10 03:57:48;;;;;;;6.00;2.85;;;25.70;99.90;;;;;;5036397;28;20017;-49
2023/06/10 04:00:17;;;;;;;6.95;3.22;;;25.70;99.90;;;;;;5036386;28;20021;-48
2023/06/10 04:02:49;;;;;;;5.57;3.25;;;25.70;99.90;;;;;;5035505;28;20044;-48
2023/06/10 04:05:16;;;;;;;3.42;3.00;;;25.70;99.90;;;;;;5035975;28;20029;-48
2023/06/10 04:07:43;;;;;;;6.40;3.20;;;25.70;99.90;;;;;;5036355;28;20075;-49
2023/06/10 04:10:11;;;;;;;3.80;2.60;;;25.70;99.90;;;;;;5036198;28;20030;-49
2023/06/10 04:12:37;;;;;;;4.57;2.92;;;25.70;99.90;;;;;;5036181;28;20044;-49
2023/06/10 04:15:04;;;;;;;6.55;3.72;;;25.70;99.90;;;;;;5035532;28;20021;-49
2023/06/10 04:17:30;;;;;;;5.72;3.03;;;25.60;99.90;;;;;;5035029;28;20143;-48
2023/06/10 04:19:56;;;;;;;6.35;3.25;;;25.70;99.90;;;;;;5035573;28;20049;-50
2023/06/10 04:22:23;;;;;;;5.63;2.65;;;25.60;99.90;;;;;;5032747;28;20017;-51
2023/06/10 04:24:49;;;;;;;6.10;2.55;;;25.60;99.90;;;;;;5035407;28;20104;-52
2023/06/10 04:27:15;;;;;;;6.93;2.83;;;25.60;99.90;;;;;;5035138;28;20057;-51
2023/06/10 04:29:41;;;;;;;5.10;2.53;;;25.60;99.90;;;;;;5035675;28;20014;-51
2023/06/10 04:32:07;;;;;;;13.27;3.10;;;25.60;99.90;;;;;;5034632;28;20029;-49
2023/06/10 04:34:34;;;;;;;4.97;2.55;;;25.60;99.90;;;;;;5035040;28;20040;-49
2023/06/10 04:36:59;;;;;;;5.18;3.05;;;25.60;99.90;;;;;;5035005;28;20036;-51
2023/06/10 04:39:25;;;;;;;5.35;2.80;;;25.60;99.90;;;;;;5017129;28;20018;-49
2023/06/10 04:41:51;;;;;;;4.88;2.20;;;25.60;99.90;;;;;;5035225;28;20036;-49
2023/06/10 04:44:18;;;;;;;11.13;3.90;;;25.60;99.90;;;;;;5035042;28;20464;-54
2023/06/10 04:46:45;;;;;;;15.47;3.93;;;25.60;99.90;;;;;;5035534;28;20021;-53
2023/06/10 04:49:11;;;;;;;9.60;4.07;;;25.50;99.90;;;;;;5035591;28;20029;-52
2023/06/10 04:51:37;;;;;;;11.05;3.92;;;25.40;99.90;;;;;;5035311;28;20655;-49
2023/06/10 04:54:03;;;;;;;9.80;3.37;;;25.40;99.90;;;;;;5035280;28;20018;-48
2023/06/10 04:56:30;;;;;;;6.75;3.47;;;25.30;99.90;;;;;;5035446;28;20418;-48
2023/06/10 04:58:59;;;;;;;7.72;3.40;;;25.30;99.90;;;;;;5035148;28;20462;-48
2023/06/10 05:01:25;;;;;;;6.05;2.97;;;25.30;99.90;;;;;;5034644;28;20053;-49
2023/06/10 05:03:51;;;;;;;8.43;3.33;;;25.30;99.90;;;;;;5035336;28;20105;-49
2023/06/10 05:06:17;;;;;;;9.23;3.40;;;25.30;99.90;;;;;;5033910;28;20146;-50
2023/06/10 05:08:42;;;;;;;8.43;4.53;;;25.30;99.90;;;;;;5035215;28;20437;-51
2023/06/10 05:11:08;;;;;;;7.82;2.90;;;25.30;99.90;;;;;;5034838;28;20029;-50
2023/06/10 05:13:34;;;;;;;7.97;2.90;;;25.30;99.90;;;;;;5035048;28;20505;-49
2023/06/10 05:16:00;;;;;;;7.03;3.38;;;25.30;99.90;;;;;;5034967;28;20060;-50
2023/06/10 05:18:26;;;;;;;8.30;3.50;;;25.30;99.90;;;;;;5017294;28;20025;-49
2023/06/10 05:20:53;;;;;;;7.45;3.17;;;25.30;99.90;;;;;;5035001;28;20025;-49
2023/06/10 05:23:20;;;;;;;6.30;2.83;;;25.30;99.90;;;;;;5035057;28;20053;-50
2023/06/10 05:25:46;;;;;;;8.00;2.88;;;25.30;99.90;;;;;;5033946;28;20421;-50
2023/06/10 05:28:11;;;;;;;7.50;2.97;;;25.30;99.90;;;;;;5034944;28;20036;-50
2023/06/10 05:30:37;;;;;;;9.68;3.15;;;25.40;99.90;;;;;;5034860;28;20052;-50
2023/06/10 05:33:04;;;;;;;5.55;2.53;;;25.40;99.90;;;;;;5034624;28;20485;-51
2023/06/10 05:35:30;;;;;;;7.03;3.15;;;25.40;99.90;;;;;;5034665;28;20466;-50
2023/06/10 05:37:56;;;;;;;6.05;2.72;;;25.40;99.90;;;;;;5034598;28;20037;-50
2023/06/10 05:40:22;;;;;;;6.93;3.28;;;25.40;99.90;;;;;;5034693;28;20072;-49
2023/06/10 05:42:48;;;;;;;6.97;2.60;;;25.40;99.90;;;;;;5034758;28;20018;-49
2023/06/10 05:45:14;;;;;;;7.35;2.90;;;25.40;99.90;;;;;;5034527;28;20030;-49
2023/06/10 05:47:40;;;;;;;7.20;3.40;;;25.40;99.90;;;;;;5034323;28;20025;-49
2023/06/10 05:50:09;;;;;;;5.35;2.55;;;25.40;99.90;;;;;;5034321;28;20048;-49
2023/06/10 05:52:36;;;;;;;8.30;3.15;;;25.40;99.90;;;;;;5032034;28;20036;-49
2023/06/10 05:55:05;;;;;;;4.43;2.67;;;25.40;99.90;;;;;;5033691;28;20018;-49
2023/06/10 05:57:31;;;;;;;6.90;4.03;;;25.40;99.90;;;;;;5032843;28;20543;-49
2023/06/10 05:59:57;;;;;;;4.95;2.97;;;25.40;99.90;;;;;;5033899;28;20021;-49
2023/06/10 06:02:23;;;;;;;4.75;2.75;;;25.40;99.90;;;;;;5033104;28;20053;-50
2023/06/10 06:04:48;;;;;;;7.00;2.47;;;25.40;99.90;;;;;;5034008;28;20033;-49
2023/06/10 06:07:14;;;;;;;5.72;3.10;;;25.40;99.90;;;;;;5034006;28;20460;-49
2023/06/10 06:09:40;;;;;;;5.38;3.50;;;25.40;99.90;;;;;;5034137;28;20029;-50
2023/06/10 06:12:07;;;;;;;7.13;3.53;;;25.40;99.90;;;;;;5033916;28;20470;-50
2023/06/10 06:14:36;;;;;;;5.10;3.33;;;25.40;99.90;;;;;;5033780;28;20112;-50
2023/06/10 06:17:02;;;;;;;6.05;3.30;;;25.40;99.90;;;;;;5032142;28;20117;-50
2023/06/10 06:19:28;;;;;;;6.22;3.00;;;25.40;99.90;;;;;;5033709;28;20444;-50
2023/06/10 06:21:54;;;;;;;5.15;3.08;;;25.40;99.90;;;;;;5033665;28;20482;-50
2023/06/10 06:24:20;;;;;;;6.85;3.20;;;25.40;99.90;;;;;;5033655;28;20105;-50
2023/06/10 06:26:45;;;;;;;8.35;3.75;;;25.40;99.90;;;;;;5033672;28;20022;-50
2023/06/10 06:29:11;;;;;;;6.60;3.20;;;25.40;99.90;;;;;;5033723;28;20083;-50
2023/06/10 06:31:37;;;;;;;6.95;3.35;;;25.40;99.90;;;;;;5033620;28;20084;-50
2023/06/10 06:34:03;;;;;;;5.97;3.40;;;25.40;99.90;;;;;;5033429;28;20444;-50
2023/06/10 06:36:28;;;;;;;6.85;3.38;;;25.40;99.90;;;;;;5033538;28;20425;-50
2023/06/10 06:38:54;;;;;;;6.72;4.13;;;25.40;99.90;;;;;;5033457;28;20025;-50
2023/06/10 06:41:21;;;;;;;4.90;3.63;;;25.50;99.90;;;;;;5033719;28;20076;-50
2023/06/10 06:43:47;;;;;;;7.38;3.58;;;25.40;99.90;;;;;;5033472;28;20033;-50
2023/06/10 06:46:13;;;;;;;7.20;4.07;;;25.50;99.90;;;;;;5033250;28;20030;-51
2023/06/10 06:48:39;;;;;;;4.30;3.55;;;25.40;99.90;;;;;;5033158;28;20047;-51
2023/06/10 06:51:04;;;;;;;6.20;3.70;;;25.40;99.90;;;;;;5033133;28;20025;-50
2023/06/10 06:53:30;;;;;;;6.13;3.92;;;25.50;99.90;;;;;;5033419;28;20104;-50
2023/06/10 06:55:56;;;;;;;5.70;3.88;;;25.50;99.90;;;;;;5033207;28;20363;-50
2023/06/10 06:58:22;;;;;;;10.50;4.60;;;25.50;99.90;;;;;;5033297;28;20581;-50
2023/06/10 07:00:47;;;;;;;5.15;3.47;;;25.50;99.90;;;;;;5033111;28;20068;-50
2023/06/10 07:03:13;;;;;;;5.88;3.70;;;25.50;99.90;;;;;;5032999;28;20524;-50
2023/06/10 07:05:39;;;;;;;5.85;3.47;;;25.50;99.90;;;;;;5033124;28;20463;-50
2023/06/10 07:08:05;;;;;;;5.93;3.67;;;25.50;99.90;;;;;;5033110;28;20026;-51
2023/06/10 07:10:31;;;;;;;5.40;3.72;;;25.50;99.90;;;;;;5032978;28;20029;-51
2023/06/10 07:12:56;;;;;;;6.78;3.75;;;25.50;99.90;;;;;;5033033;28;20044;-50
2023/06/10 07:15:22;;;;;;;5.40;3.60;;;25.50;99.90;;;;;;5033146;28;20048;-51
2023/06/10 07:17:48;;;;;;;6.13;3.90;;;25.50;99.90;;;;;;5033101;28;20025;-51
2023/06/10 07:20:14;;;;;;;5.40;3.65;;;25.50;99.90;;;;;;5033137;28;20056;-51
2023/06/10 07:22:41;;;;;;;6.70;3.47;;;25.50;99.90;;;;;;5033145;28;20021;-49
2023/06/10 07:25:07;;;;;;;3.95;3.00;;;25.50;99.90;;;;;;5031742;28;20033;-49
2023/06/10 07:27:33;;;;;;;8.35;3.65;;;25.50;99.90;;;;;;5033298;28;20036;-50
2023/06/10 07:30:00;;;;;;;5.13;3.47;;;25.50;99.90;;;;;;5036752;28;20025;-51
2023/06/10 07:32:26;;;;;;;6.00;3.40;;;25.50;99.90;;;;;;5036803;28;20505;-50
2023/06/10 07:34:52;;;;;;;4.90;3.25;;;25.50;99.90;;;;;;5036900;28;20033;-50
2023/06/10 07:37:19;;;;;;;7.47;3.65;;;25.50;99.90;;;;;;5036757;28;20032;-51
2023/06/10 07:39:45;;;;;;;5.10;3.15;;;25.50;99.90;;;;;;5036754;28;20024;-51
2023/06/10 07:42:11;;;;;;;5.13;3.28;;;25.50;99.90;;;;;;5036850;28;20037;-50
2023/06/10 07:44:36;;;;;;;4.40;3.22;;;25.60;99.90;;;;;;5036519;28;20025;-51
2023/06/10 07:47:02;;;;;;;5.30;3.15;;;25.60;99.90;;;;;;5036413;28;20544;-51
2023/06/10 07:49:28;;;;;;;5.20;3.80;;;25.60;99.90;;;;;;5036412;28;20032;-51
2023/06/10 07:51:55;;;;;;;4.72;3.42;;;25.60;99.90;;;;;;5036344;28;20095;-51
2023/06/10 07:54:21;;;;;;;4.25;3.15;;;25.50;99.90;;;;;;5036699;28;20139;-51
2023/06/10 07:56:47;;;;;;;5.28;3.13;;;25.50;99.90;;;;;;5036583;28;20075;-51
2023/06/10 07:59:14;;;;;;;5.55;3.20;;;25.60;99.90;;;;;;5036247;28;20024;-51
2023/06/10 08:01:40;;;;;;;6.03;3.72;;;25.60;99.90;;;;;;5036092;28;20046;-51
2023/06/10 08:04:06;;;;;;;5.45;3.35;;;25.60;99.90;;;;;;5036404;28;20440;-51
2023/06/10 08:06:32;;;;;;;5.82;3.65;;;25.60;99.90;;;;;;5035065;28;20021;-50
2023/06/10 08:08:59;;;;;;;6.20;3.22;;;25.60;99.90;;;;;;5036259;28;20026;-54
2023/06/10 08:11:28;;;;;;;5.82;3.47;;;25.60;99.90;;;;;;5018762;28;20440;-51
2023/06/10 08:13:54;;;;;;;6.03;3.33;;;25.60;99.90;;;;;;5034772;28;20351;-51
2023/06/10 08:16:19;;;;;;;6.35;4.00;;;25.60;99.90;;;;;;5036046;28;20520;-51
2023/06/10 08:18:45;;;;;;;8.30;4.30;;;25.60;99.90;;;;;;5036110;28;20029;-51
2023/06/10 08:21:11;;;;;;;6.47;3.83;;;25.60;99.90;;;;;;5018121;28;20025;-51
2023/06/10 08:23:37;;;;;;;5.95;3.50;;;25.60;99.90;;;;;;5036201;28;20068;-51
2023/06/10 08:26:03;;;;;;;7.47;4.50;;;25.60;99.90;;;;;;5035910;28;20462;-51
2023/06/10 08:28:29;;;;;;;6.78;3.88;;;25.60;99.90;;;;;;5035985;28;20029;-51
2023/06/10 08:30:54;;;;;;;6.50;3.90;;;25.60;99.90;;;;;;5035514;28;20021;-51
2023/06/10 08:33:20;;;;;;;7.32;3.70;;;25.60;99.90;;;;;;5018171;28;20489;-50
2023/06/10 08:35:46;;;;;;;6.25;3.67;;;25.60;99.90;;;;;;5033307;28;20036;-51
2023/06/10 08:38:12;;;;;;;9.77;4.13;;;25.60;99.90;;;;;;5035338;28;20029;-51
2023/06/10 08:40:37;;;;;;;5.57;3.50;;;25.60;99.90;;;;;;5033562;28;20032;-51
2023/06/10 08:43:10;;;;;;;8.80;4.20;;;25.70;99.90;;;;;;5017697;28;20029;-50
2023/06/10 08:45:37;;;;;;;9.15;4.35;;;25.70;99.90;;;;;;5034708;28;20040;-51
2023/06/10 08:48:07;;;;;;;7.17;3.97;;;25.70;99.90;;;;;;5035507;28;20025;-51
2023/06/10 08:50:37;;;;;;;5.88;3.70;;;25.70;99.90;;;;;;5035252;28;20261;-50
2023/06/10 08:53:05;;;;;;;7.90;3.72;;;25.70;99.90;;;;;;5035207;28;20106;-51
2023/06/10 08:55:40;;;;;;;9.70;3.63;;;25.70;99.90;;;;;;5035378;28;20025;-51
2023/06/10 08:58:06;;;;;;;7.70;3.90;;;25.70;99.90;;;;;;5035237;28;20035;-50
2023/06/10 09:00:33;;;;;;;7.18;3.60;;;25.70;99.90;;;;;;5034926;28;20472;-50
2023/06/10 09:03:00;;;;;;;8.48;3.70;;;25.70;99.90;;;;;;5035237;28;20048;-50
2023/06/10 09:05:28;;;;;;;6.10;4.07;;;25.70;99.90;;;;;;5035074;28;20198;-51
2023/06/10 09:07:57;;;;;;;5.80;3.63;;;25.70;99.90;;;;;;5035035;28;20029;-51
2023/06/10 09:10:22;;;;;;;6.10;3.50;;;25.70;99.90;;;;;;5034844;28;20045;-51
2023/06/10 09:12:48;;;;;;;8.10;3.10;;;25.70;99.90;;;;;;5034869;28;20478;-51
2023/06/10 09:15:17;;;;;;;6.57;3.92;;;25.70;99.90;;;;;;5017373;28;20488;-51
2023/06/10 09:17:43;;;;;;;8.20;3.70;;;25.70;99.90;;;;;;5034944;28;20112;-51
2023/06/10 09:20:09;;;;;;;9.18;3.80;;;25.70;99.90;;;;;;5016962;28;20029;-51
2023/06/10 09:22:35;;;;;;;7.28;3.65;;;25.70;99.90;;;;;;5033415;28;20382;-51
2023/06/10 09:25:12;;;;;;;5.43;3.45;;;25.70;99.90;;;;;;5034970;28;20033;-51
2023/06/10 09:27:45;;;;;;;7.28;4.60;;;25.70;99.90;;;;;;5034668;28;20025;-50
2023/06/10 09:30:27;;;;;;;5.70;3.80;;;25.70;99.90;;;;;;5034758;28;20112;-51
2023/06/10 09:32:56;;;;;;;6.90;3.30;;;25.70;99.90;;;;;;5034452;28;20124;-51
2023/06/10 09:35:23;;;;;;;7.72;3.53;;;25.70;99.90;;;;;;5034490;28;20022;-50
2023/06/10 09:37:53;;;;;;;7.57;3.55;;;25.80;99.90;;;;;;5016772;28;20025;-51
2023/06/10 09:40:20;;;;;;;7.05;3.80;;;25.80;99.90;;;;;;5034833;28;20091;-52
2023/06/10 09:42:48;;;;;;;7.22;3.92;;;25.70;99.90;;;;;;5034601;28;20029;-51
2023/06/10 09:45:15;;;;;;;7.45;5.18;;;25.80;99.90;;;;;;5034357;28;20021;-52
2023/06/10 09:47:41;;;;;;;7.97;5.33;;;25.80;99.90;;;;;;5034301;28;20033;-51
2023/06/10 09:50:07;;;;;;;9.57;4.57;;;25.80;99.90;;;;;;5034469;28;20042;-51
2023/06/10 09:52:33;;;;;;;6.32;3.90;;;25.80;99.90;;;;;;5033524;28;20064;-51
2023/06/10 09:55:02;;;;;;;7.50;4.53;;;25.80;99.90;;;;;;5034354;28;20032;-51
2023/06/10 09:57:33;;;;;;;7.22;4.30;;;25.80;99.90;;;;;;5034236;28;20025;-51
2023/06/10 10:00:03;;;;;;;7.18;4.80;;;25.80;99.90;;;;;;5034237;28;20422;-51
2023/06/10 10:02:29;;;;;;;11.82;5.43;;;25.80;99.90;;;;;;5033900;28;20405;-51
2023/06/10 10:05:04;;;;;;;8.65;5.00;;;25.80;99.90;;;;;;5016310;28;20032;-51
2023/06/10 10:07:30;;;;;;;11.40;4.45;;;25.80;99.90;;;;;;5033980;28;20020;-51
2023/06/10 10:09:56;;;;;;;8.93;4.97;;;25.80;99.90;;;;;;5034028;28;20025;-50
2023/06/10 10:12:23;;;;;;;9.73;5.18;;;25.80;99.90;;;;;;5033881;28;20410;-51
2023/06/10 10:14:50;;;;;;;7.72;4.53;;;25.80;99.90;;;;;;5034046;28;20025;-51
2023/06/10 10:17:16;;;;;;;10.73;4.88;;;25.80;99.90;;;;;;5033727;28;20078;-51
2023/06/10 10:19:57;;;;;;;7.18;4.38;;;25.80;99.90;;;;;;5033720;28;20036;-51
2023/06/10 10:22:29;;;;;;;9.35;5.00;;;25.80;99.90;;;;;;5033645;28;20029;-51
2023/06/10 10:25:02;;;;;;;9.77;4.50;;;25.80;99.90;;;;;;5016379;28;20406;-51
2023/06/10 10:27:38;;;;;;;6.32;4.38;;;25.80;99.90;;;;;;5033574;28;20053;-51
2023/06/10 10:30:08;;;;;;;10.02;5.10;;;25.80;99.90;;;;;;5017098;28;20497;-51
2023/06/10 10:33:05;;;;;;;8.00;4.63;;;25.80;99.90;;;;;;5033286;28;20049;-51
2023/06/10 10:35:32;;;;;;;10.02;5.15;;;25.80;99.90;;;;;;5032679;28;20068;-51
2023/06/10 10:37:58;;;;;;;10.38;4.75;;;25.80;99.90;;;;;;5033386;28;20048;-52
2023/06/10 10:40:26;;;;;;;8.00;4.68;;;25.90;99.90;;;;;;5033302;28;20017;-52
2023/06/10 10:42:52;;;;;;;;;;;25.80;99.90;;;;;;5033818;28;20079;-52
2023/06/10 10:45:19;;;;;;;7.07;4.20;;;25.90;99.90;;;;;;5033325;28;19944;-52
2023/06/10 10:47:46;;;;;;;10.75;4.72;;;25.90;99.90;;;;;;5033221;28;20033;-52
2023/06/10 10:50:19;;;;;;;9.68;4.95;;;25.90;99.90;;;;;;5015797;28;20367;-52
2023/06/10 10:52:51;;;;;;;7.40;3.97;;;25.90;99.90;;;;;;5031884;28;20132;-52
2023/06/10 10:55:17;;;;;;;8.30;4.35;;;25.90;99.90;;;;;;5033135;28;20075;-52
2023/06/10 10:57:43;;;;;;;9.30;5.25;;;25.90;99.90;;;;;;5033570;28;20429;-52
2023/06/10 11:00:09;;;;;;;8.52;4.47;;;25.90;99.90;;;;;;5033161;28;20378;-51
2023/06/10 11:02:45;;;;;;;8.60;4.93;;;25.90;99.90;;;;;;5032610;28;20084;-52
2023/06/10 11:05:16;;;;;;;8.65;4.80;;;25.90;99.90;;;;;;5033178;28;20088;-51
2023/06/10 11:07:55;;;;;;;8.27;4.65;;;25.90;99.90;;;;;;5033051;28;20022;-52
2023/06/10 11:10:36;;;;;;;11.27;5.65;;;25.90;99.90;;;;;;5015353;28;20025;-49
2023/06/10 11:13:10;;;;;;;11.02;5.15;;;25.90;99.90;;;;;;4999147;28;20065;-52
2023/06/10 11:15:45;;;;;;;11.82;6.22;;;25.90;99.90;;;;;;5032659;28;20064;-52
2023/06/10 11:18:14;;;;;;;8.80;4.78;;;25.90;99.90;;;;;;5032289;28;20363;-56
2023/06/10 11:20:49;;;;;;;10.10;5.35;;;25.90;99.90;;;;;;5032869;28;20470;-52
2023/06/10 11:23:32;;;;;;;9.48;5.60;;;25.90;99.90;;;;;;5032782;28;20022;-52
2023/06/10 11:26:19;;;;;;;9.68;5.65;;;25.90;99.90;;;;;;5031968;28;20371;-52
2023/06/10 11:28:47;;;;;;;9.43;5.55;;;25.90;99.90;;;;;;5032899;28;20470;-51
2023/06/10 11:31:20;;;;;;;9.07;4.82;;;25.90;99.90;;;;;;5032919;28;20041;-52
2023/06/10 11:33:48;;;;;;;7.90;5.00;;;26.00;99.90;;;;;;5032906;28;20036;-52
2023/06/10 11:36:14;;;;;;;;;;;26.00;99.90;;;;;;5033251;28;20033;-52
2023/06/10 11:38:41;;;;;;;7.22;4.95;;;26.00;99.90;;;;;;5031568;28;19905;-52
2023/06/10 11:41:07;;;;;;;8.95;4.70;;;26.00;99.90;;;;;;5031596;28;20032;-52
2023/06/10 11:43:34;;;;;;;8.32;4.75;;;26.00;99.90;;;;;;5032892;28;20407;-52
2023/06/10 11:46:00;;;;;;;11.45;4.57;;;26.00;99.90;;;;;;5031879;28;20045;-52
2023/06/10 11:48:30;;;;;;;8.23;4.53;;;26.00;99.90;;;;;;5032858;28;20104;-52
2023/06/10 11:50:56;;;;;;;9.98;5.15;;;26.00;99.90;;;;;;5031324;28;20026;-52
2023/06/10 11:53:21;;;;;;;8.35;4.72;;;26.00;99.90;;;;;;5032499;28;20041;-52
2023/06/10 11:55:49;;;;;;;10.02;5.55;;;26.00;99.90;;;;;;5032775;28;20013;-52
2023/06/10 11:58:16;;;;;;;7.60;4.80;;;26.00;99.90;;;;;;5032600;28;20418;-52
2023/06/10 12:00:49;;;;;;;6.15;4.50;;;26.00;99.90;;;;;;5032369;28;20037;-52
2023/06/10 12:03:16;;;;;;;8.48;5.10;;;26.00;99.90;;;;;;5032454;28;20029;-52
2023/06/10 12:05:54;;;;;;;8.88;5.28;;;26.10;99.90;;;;;;5031661;28;20033;-52
2023/06/10 12:08:20;;;;;;;9.52;5.25;;;26.00;99.90;;;;;;5032579;28;20334;-52
2023/06/10 12:10:46;;;;;;;8.00;5.57;;;26.10;99.90;;;;;;5031475;28;20470;-51
2023/06/10 12:13:12;;;;;;;9.13;5.30;;;26.10;99.90;;;;;;5031201;28;20113;-51
2023/06/10 12:15:38;;;;;;;8.55;5.38;;;26.10;99.90;;;;;;5035317;28;20472;-50
2023/06/10 12:18:04;;;;;;;9.88;5.13;;;26.10;99.90;;;;;;5035100;28;20036;-51
2023/06/10 12:20:34;;;;;;;7.88;5.20;;;26.10;99.90;;;;;;5036042;28;20018;-51
2023/06/10 12:23:08;;;;;;;9.75;5.45;;;26.10;99.90;;;;;;5035994;28;20082;-51
2023/06/10 12:25:34;;;;;;;7.18;4.93;;;26.10;99.90;;;;;;5035953;28;20018;-51
2023/06/10 12:27:59;;;;;;;6.68;4.65;;;26.10;99.90;;;;;;5035939;28;20029;-50
2023/06/10 12:30:26;;;;;;;11.65;5.10;;;26.20;99.90;;;;;;5035997;28;20021;-51
2023/06/10 12:32:53;;;;;;;8.10;5.18;;;26.10;99.90;;;;;;5035868;28;20033;-51
2023/06/10 12:35:27;;;;;;;7.93;4.95;;;26.20;99.90;;;;;;5036056;28;20029;-50
2023/06/10 12:38:01;;;;;;;9.80;5.20;;;26.10;99.90;;;;;;5035875;28;20386;-51
2023/06/10 12:40:36;;;;;;;8.65;4.75;;;26.10;99.90;;;;;;5035770;28;20017;-50
2023/06/10 12:43:02;;;;;;;9.60;5.18;;;26.10;99.90;;;;;;5035624;28;20097;-51
2023/06/10 12:45:32;;;;;;;10.82;5.80;;;26.20;99.90;;;;;;5034258;28;20025;-51
2023/06/10 12:48:10;;;;;;;9.05;5.07;;;26.20;99.90;;;;;;5035422;28;20419;-51
2023/06/10 12:50:41;;;;;;;7.60;4.85;;;26.20;99.90;;;;;;5035374;28;20029;-52